Flight Track Log - Related Links

Times and Time Zones

All times are in EDT time to prevent confusion due to time zone crossing. See the EJA646 flight status page for this flight to view local times or setup timezone preferences in your user account.

Time Position Orientation Groundspeed Altitude Reporting Facility
EDT Latitude Longitude Course Direction KTS MPH feet Rate Location/Type
Wed 04:44:54 PM 38.3961 -82.6053 270° West 212 244 3,200  Level Indianapolis Center
Wed 04:45:56 PM 38.4389 -82.6675 311° West 228 262 6,000 2,878 Climbing Indianapolis Center
Wed 04:46:57 PM 38.4822 -82.7489 304° West 277 319 9,100 3,073 Climbing Indianapolis Center
Wed 04:47:59 PM 38.4958 -82.8658 278° West 285 328 12,300 2,226 Climbing Indianapolis Center
Wed 04:49:01 PM 38.5083 -82.9717 279° West 300 345 13,700 1,742 Climbing Indianapolis Center
Wed 04:50:00 PM 38.6333 -83.1457 270° West  Level FlightAware Approximate
Wed 04:50:03 PM 38.5214 -83.0947 278° West 343 395 15,900  Level Indianapolis Center
Wed 04:51:05 PM 38.5339 -83.2108 278° West 333 383 18,500 2,565 Climbing Indianapolis Center
Wed 04:52:07 PM 38.5467 -83.3219 278° West 322 371 21,200 2,710 Climbing Indianapolis Center
Wed 04:53:09 PM 38.5597 -83.4483 278° West 310 357 24,100 2,244 Climbing Indianapolis Center
Wed 04:54:10 PM 38.5725 -83.5578 279° West 313 360 25,800 1,317 Climbing Indianapolis Center
Wed 04:55:12 PM 38.5844 -83.6744 277° West 328 377 26,800 919 Climbing Indianapolis Center
Wed 04:56:14 PM 38.5975 -83.8011 278° West 351 404 27,700 823 Climbing Indianapolis Center
Wed 04:57:16 PM 38.6094 -83.9306 277° West 363 418 28,500 1,016 Climbing Indianapolis Center
Wed 04:58:18 PM 38.5708 -84.0542 248° West 372 428 29,800 1,355 Climbing Indianapolis Center
Wed 04:59:20 PM 38.5086 -84.1861 239° Southwest 372 428 31,300 1,317 Climbing Indianapolis Center
Wed 05:00:21 PM 38.4544 -84.2972 238° Southwest 370 426 32,500 1,512 Climbing Indianapolis Center
Wed 05:01:23 PM 38.3903 -84.3947 230° Southwest 359 413 34,400 1,645 Climbing Indianapolis Center
Wed 05:02:25 PM 38.3281 -84.4847 229° Southwest 343 395 35,900 1,016 Climbing Indianapolis Center
Wed 05:03:27 PM 38.2628 -84.5789 229° Southwest 352 405 36,500 1,113 Climbing Indianapolis Center
Wed 05:04:29 PM 38.1858 -84.6875 228° Southwest 351 404 38,200 1,355 Climbing Indianapolis Center
Wed 05:05:31 PM 38.1231 -84.7775 228° Southwest 344 396 39,300 871 Climbing Indianapolis Center
Wed 05:06:33 PM 38.0608 -84.8683 229° Southwest 343 395 40,000 341 Climbing Indianapolis Center
Wed 05:07:34 PM 37.9919 -84.9653 228° Southwest 366 421 40,000  Level Indianapolis Center
Wed 05:08:36 PM 37.9225 -85.0633 228° Southwest 374 430 40,000  Level Indianapolis Center
Wed 05:09:38 PM 37.8411 -85.1781 228° Southwest 376 433 40,000  Level Indianapolis Center
Wed 05:10:40 PM 37.7736 -85.2744 228° Southwest 369 425 40,000  Level Indianapolis Center
Wed 05:11:42 PM 37.7050 -85.3700 228° Southwest 370 426 40,000  Level Indianapolis Center
Wed 05:12:44 PM 37.6358 -85.4683 228° Southwest 373 429 40,000  Level Indianapolis Center
Wed 05:13:45 PM 37.5656 -85.5661 228° Southwest 373 429 40,000  Level Indianapolis Center
Wed 05:14:47 PM 37.4967 -85.6617 228° Southwest 368 423 40,000  Level Indianapolis Center
Wed 05:15:49 PM 37.4278 -85.7581 228° Southwest 369 425 40,000  Level Indianapolis Center
Wed 05:16:51 PM 37.3522 -85.8617 227° Southwest 369 425 40,000  Level Indianapolis Center
Wed 05:17:18 PM 37.3167 -85.9106 228° Southwest 359 413 40,000  Level Memphis Center
Wed 05:17:53 PM 37.2825 -85.9589 228° Southwest 371 427 40,000  Level Indianapolis Center
Wed 05:18:55 PM 37.2092 -86.0500 225° Southwest 371 427 40,000  Level Indianapolis Center
Wed 05:19:56 PM 37.1256 -86.1297 217° Southwest 373 429 40,000  Level Indianapolis Center
Wed 05:20:18 PM 37.0942 -86.1594 217° Southwest 375 432 40,000 -1,098 Level Memphis Center
Wed 05:21:18 PM 37.0136 -86.2417 219° Southwest 380 437 38,500 -1,750 Descending Memphis Center
Wed 05:22:18 PM 36.9350 -86.3261 221° Southwest 387 445 36,500 -1,750 Descending Memphis Center
Wed 05:23:18 PM 36.8503 -86.4083 218° Southwest 388 447 35,000 -950 Descending Memphis Center
Wed 05:24:18 PM 36.7519 -86.4675 206° Southwest 383 441 34,600  Descending Memphis Center
Wed 05:25:18 PM 36.6600 -86.5183 204° Southwest 383 441 35,000 -1,650 Climbing Memphis Center
Wed 05:26:18 PM 36.5636 -86.5722 204° Southwest 357 411 31,300 -2,650 Descending Memphis Center
Wed 05:27:18 PM 36.5122 -86.6622 235° Southwest 311 358 29,700 -1,600 Descending Memphis Center
Wed 05:28:18 PM 36.4678 -86.7831 245° Southwest 348 400 28,100 -850 Descending Memphis Center
Wed 05:29:18 PM 36.4192 -86.9117 245° Southwest 391 450 28,000 -350 Descending Memphis Center
Wed 05:30:18 PM 36.3722 -87.0244 243° Southwest 409 471 27,400 -1,200 Descending Memphis Center
Wed 05:31:18 PM 36.3214 -87.1500 243° Southwest 409 471 25,600 -1,900 Descending Memphis Center
Wed 05:32:18 PM 36.2686 -87.2861 244° Southwest 409 471 23,600 -2,050 Descending Memphis Center
Wed 05:33:18 PM 36.2278 -87.4111 248° West 402 463 21,500 -2,000 Descending Memphis Center
Wed 05:34:18 PM 36.2244 -87.5322 268° West 369 425 19,600 -1,250 Descending Memphis Center
Wed 05:35:18 PM 36.2208 -87.6583 268° West 369 425 19,000 -1,100 Descending Memphis Center
Wed 05:36:18 PM 36.2153 -87.7872 267° West 369 425 17,400 -1,650 Descending Memphis Center
Wed 05:37:18 PM 36.1694 -87.8964 243° Southwest 354 407 15,700 -1,750 Descending Memphis Center
Wed 05:38:18 PM 36.1025 -87.9808 226° Southwest 354 407 13,900 -1,800 Descending Memphis Center
Wed 05:39:18 PM 36.0392 -88.0622 226° Southwest 338 389 12,100 -950 Descending Memphis Center
Wed 05:40:18 PM 35.9864 -88.1356 228° Southwest 332 382 12,000 -100 Descending Memphis Center
Wed 05:41:18 PM 35.9378 -88.2164 233° Southwest 312 359 11,900  Descending Memphis Center
Wed 05:42:17 PM 35.9039 -88.3042 245° Southwest 301 346 12,000 50 Climbing Memphis Center
Wed 05:43:18 PM 35.8636 -88.4000 243° Southwest 301 346 12,000 -694 Level Memphis Center
Wed 05:44:18 PM 35.8317 -88.4878 246° West 301 346 10,600 -1,966 Descending Memphis Center
Wed 05:45:17 PM 35.7994 -88.5681 244° Southwest 288 331 8,100 -2,550 Descending Memphis Center
Wed 05:46:18 PM 35.7736 -88.6478 248° West 269 310 5,500 -1,884 Descending Memphis Center
Wed 05:47:18 PM 35.7411 -88.7253 243° Southwest 254 292 4,300 -1,050 Descending Memphis Center
Wed 05:48:18 PM 35.7086 -88.7922 239° Southwest 242 278 3,400 -950 Descending Memphis Center
Wed 05:49:18 PM 35.6800 -88.8389 233° Southwest 237 273 2,400 -1,059 Descending Memphis Center
Wed 05:50:17 PM 35.6389 -88.8933 227° Southwest 208 239 1,300 -655 Descending Memphis Center
Wed 05:51:17 PM 35.6064 -88.9450 232° Southwest 197 227 1,100 -200 Descending Memphis Center

Login

Don't have an account? Register now (free) for customized features, flight alerts, and more!